sensor_id;sensor_type;location;lat;lon;timestamp;P1;durP1;ratioP1;P2;durP2;ratioP2
26920;SDS011;14483;47.844;9.660;2023-04-03T00:00:53;4.35;;;2.70;;
26920;SDS011;14483;47.844;9.660;2023-04-03T00:03:20;3.90;;;2.83;;
26920;SDS011;14483;47.844;9.660;2023-04-03T00:05:46;3.72;;;2.53;;
26920;SDS011;14483;47.844;9.660;2023-04-03T00:08:12;4.60;;;3.00;;
26920;SDS011;14483;47.844;9.660;2023-04-03T00:10:39;3.50;;;2.28;;
26920;SDS011;14483;47.844;9.660;2023-04-03T00:13:07;4.22;;;2.80;;
26920;SDS011;14483;47.844;9.660;2023-04-03T00:15:34;4.85;;;2.60;;
26920;SDS011;14483;47.844;9.660;2023-04-03T00:18:01;3.35;;;2.50;;
26920;SDS011;14483;47.844;9.660;2023-04-03T00:20:27;7.20;;;2.38;;
26920;SDS011;14483;47.844;9.660;2023-04-03T00:22:54;4.57;;;3.20;;
26920;SDS011;14483;47.844;9.660;2023-04-03T00:25:20;3.08;;;2.30;;
26920;SDS011;14483;47.844;9.660;2023-04-03T00:27:47;4.82;;;1.88;;
26920;SDS011;14483;47.844;9.660;2023-04-03T00:30:16;3.70;;;2.40;;
26920;SDS011;14483;47.844;9.660;2023-04-03T00:32:42;3.95;;;2.17;;
26920;SDS011;14483;47.844;9.660;2023-04-03T00:35:09;3.42;;;2.33;;
26920;SDS011;14483;47.844;9.660;2023-04-03T00:37:35;4.10;;;2.53;;
26920;SDS011;14483;47.844;9.660;2023-04-03T00:40:02;3.92;;;2.38;;
26920;SDS011;14483;47.844;9.660;2023-04-03T00:42:28;3.95;;;2.55;;
26920;SDS011;14483;47.844;9.660;2023-04-03T00:47:41;3.38;;;2.65;;
26920;SDS011;14483;47.844;9.660;2023-04-03T00:50:08;4.85;;;2.88;;
26920;SDS011;14483;47.844;9.660;2023-04-03T00:52:34;4.60;;;3.00;;
26920;SDS011;14483;47.844;9.660;2023-04-03T00:55:02;5.32;;;3.10;;
26920;SDS011;14483;47.844;9.660;2023-04-03T00:57:30;4.90;;;3.13;;
26920;SDS011;14483;47.844;9.660;2023-04-03T00:59:57;4.88;;;2.75;;
26920;SDS011;14483;47.844;9.660;2023-04-03T01:02:32;5.07;;;2.78;;
26920;SDS011;14483;47.844;9.660;2023-04-03T01:04:59;3.58;;;2.58;;
26920;SDS011;14483;47.844;9.660;2023-04-03T01:07:28;4.40;;;3.47;;
26920;SDS011;14483;47.844;9.660;2023-04-03T01:09:56;4.75;;;3.03;;
26920;SDS011;14483;47.844;9.660;2023-04-03T01:12:23;3.72;;;3.00;;
26920;SDS011;14483;47.844;9.660;2023-04-03T01:14:50;5.35;;;2.97;;
26920;SDS011;14483;47.844;9.660;2023-04-03T01:17:26;4.75;;;3.08;;
26920;SDS011;14483;47.844;9.660;2023-04-03T01:19:55;4.55;;;3.20;;
26920;SDS011;14483;47.844;9.660;2023-04-03T01:22:26;4.97;;;3.33;;
26920;SDS011;14483;47.844;9.660;2023-04-03T01:24:57;5.78;;;3.33;;
26920;SDS011;14483;47.844;9.660;2023-04-03T01:27:23;5.65;;;3.47;;
26920;SDS011;14483;47.844;9.660;2023-04-03T01:29:49;4.60;;;3.45;;
26920;SDS011;14483;47.844;9.660;2023-04-03T01:32:17;5.20;;;3.63;;
26920;SDS011;14483;47.844;9.660;2023-04-03T01:34:43;4.70;;;3.65;;
26920;SDS011;14483;47.844;9.660;2023-04-03T01:37:10;7.18;;;3.45;;
26920;SDS011;14483;47.844;9.660;2023-04-03T01:39:36;4.68;;;3.53;;
26920;SDS011;14483;47.844;9.660;2023-04-03T01:42:02;5.05;;;3.83;;
26920;SDS011;14483;47.844;9.660;2023-04-03T01:44:29;7.68;;;3.83;;
26920;SDS011;14483;47.844;9.660;2023-04-03T01:46:55;4.82;;;3.75;;
26920;SDS011;14483;47.844;9.660;2023-04-03T01:49:23;5.57;;;3.72;;
26920;SDS011;14483;47.844;9.660;2023-04-03T01:51:49;4.13;;;2.72;;
26920;SDS011;14483;47.844;9.660;2023-04-03T01:54:16;5.43;;;2.90;;
26920;SDS011;14483;47.844;9.660;2023-04-03T01:56:42;4.85;;;3.30;;
26920;SDS011;14483;47.844;9.660;2023-04-03T01:59:08;4.35;;;2.90;;
26920;SDS011;14483;47.844;9.660;2023-04-03T02:01:35;5.50;;;3.28;;
26920;SDS011;14483;47.844;9.660;2023-04-03T02:04:01;4.88;;;3.47;;
26920;SDS011;14483;47.844;9.660;2023-04-03T02:06:29;4.80;;;2.75;;
26920;SDS011;14483;47.844;9.660;2023-04-03T02:08:55;5.13;;;3.47;;
26920;SDS011;14483;47.844;9.660;2023-04-03T02:11:22;4.55;;;2.90;;
26920;SDS011;14483;47.844;9.660;2023-04-03T02:13:48;3.17;;;2.47;;
26920;SDS011;14483;47.844;9.660;2023-04-03T02:16:14;4.43;;;3.10;;
26920;SDS011;14483;47.844;9.660;2023-04-03T02:18:41;4.25;;;2.83;;
26920;SDS011;14483;47.844;9.660;2023-04-03T02:21:07;4.03;;;2.88;;
26920;SDS011;14483;47.844;9.660;2023-04-03T02:23:35;8.13;;;3.80;;
26920;SDS011;14483;47.844;9.660;2023-04-03T02:26:05;7.05;;;3.50;;
26920;SDS011;14483;47.844;9.660;2023-04-03T02:28:32;5.97;;;3.17;;
26920;SDS011;14483;47.844;9.660;2023-04-03T02:30:58;5.80;;;3.38;;
26920;SDS011;14483;47.844;9.660;2023-04-03T02:33:25;5.20;;;3.45;;
26920;SDS011;14483;47.844;9.660;2023-04-03T02:35:52;6.03;;;4.10;;
26920;SDS011;14483;47.844;9.660;2023-04-03T02:38:18;3.75;;;2.83;;
26920;SDS011;14483;47.844;9.660;2023-04-03T02:40:46;5.55;;;3.33;;
26920;SDS011;14483;47.844;9.660;2023-04-03T02:43:13;5.38;;;2.95;;
26920;SDS011;14483;47.844;9.660;2023-04-03T02:45:39;5.90;;;3.13;;
26920;SDS011;14483;47.844;9.660;2023-04-03T02:48:06;4.47;;;2.80;;
26920;SDS011;14483;47.844;9.660;2023-04-03T02:50:32;5.35;;;3.00;;
26920;SDS011;14483;47.844;9.660;2023-04-03T02:52:58;4.85;;;2.85;;
26920;SDS011;14483;47.844;9.660;2023-04-03T02:55:25;4.85;;;2.95;;
26920;SDS011;14483;47.844;9.660;2023-04-03T02:57:52;5.50;;;3.78;;
26920;SDS011;14483;47.844;9.660;2023-04-03T03:00:19;5.22;;;3.33;;
26920;SDS011;14483;47.844;9.660;2023-04-03T03:02:45;7.13;;;3.35;;
26920;SDS011;14483;47.844;9.660;2023-04-03T03:05:12;5.38;;;3.50;;
26920;SDS011;14483;47.844;9.660;2023-04-03T03:07:38;5.82;;;3.05;;
26920;SDS011;14483;47.844;9.660;2023-04-03T03:10:05;5.55;;;3.75;;
26920;SDS011;14483;47.844;9.660;2023-04-03T03:12:31;5.00;;;3.10;;
26920;SDS011;14483;47.844;9.660;2023-04-03T03:14:59;5.05;;;2.95;;
26920;SDS011;14483;47.844;9.660;2023-04-03T03:17:25;4.30;;;2.65;;
26920;SDS011;14483;47.844;9.660;2023-04-03T03:19:52;5.43;;;2.85;;
26920;SDS011;14483;47.844;9.660;2023-04-03T03:22:18;5.15;;;3.40;;
26920;SDS011;14483;47.844;9.660;2023-04-03T03:24:44;4.65;;;3.05;;
26920;SDS011;14483;47.844;9.660;2023-04-03T03:27:11;4.68;;;2.80;;
26920;SDS011;14483;47.844;9.660;2023-04-03T03:29:38;4.63;;;3.22;;
26920;SDS011;14483;47.844;9.660;2023-04-03T03:32:06;3.65;;;2.65;;
26920;SDS011;14483;47.844;9.660;2023-04-03T03:34:32;5.88;;;2.60;;
26920;SDS011;14483;47.844;9.660;2023-04-03T03:36:58;6.47;;;2.67;;
26920;SDS011;14483;47.844;9.660;2023-04-03T03:39:25;4.70;;;2.90;;
26920;SDS011;14483;47.844;9.660;2023-04-03T03:41:51;4.72;;;3.15;;
26920;SDS011;14483;47.844;9.660;2023-04-03T03:44:18;6.10;;;2.97;;
26920;SDS011;14483;47.844;9.660;2023-04-03T03:46:44;6.25;;;4.45;;
26920;SDS011;14483;47.844;9.660;2023-04-03T03:49:12;7.15;;;3.38;;
26920;SDS011;14483;47.844;9.660;2023-04-03T03:51:39;5.10;;;3.17;;
26920;SDS011;14483;47.844;9.660;2023-04-03T03:54:06;5.97;;;3.35;;
26920;SDS011;14483;47.844;9.660;2023-04-03T03:56:32;4.90;;;2.65;;
26920;SDS011;14483;47.844;9.660;2023-04-03T03:58:58;7.50;;;3.00;;
26920;SDS011;14483;47.844;9.660;2023-04-03T04:01:25;4.47;;;3.15;;
26920;SDS011;14483;47.844;9.660;2023-04-03T04:03:51;5.57;;;3.10;;
26920;SDS011;14483;47.844;9.660;2023-04-03T04:06:20;5.07;;;2.88;;
26920;SDS011;14483;47.844;9.660;2023-04-03T04:08:46;4.65;;;2.80;;
26920;SDS011;14483;47.844;9.660;2023-04-03T04:11:13;4.25;;;2.83;;
26920;SDS011;14483;47.844;9.660;2023-04-03T04:13:39;5.15;;;3.10;;
26920;SDS011;14483;47.844;9.660;2023-04-03T04:16:06;4.45;;;3.20;;
26920;SDS011;14483;47.844;9.660;2023-04-03T04:18:33;4.82;;;2.50;;
26920;SDS011;14483;47.844;9.660;2023-04-03T04:20:59;4.60;;;2.85;;
26920;SDS011;14483;47.844;9.660;2023-04-03T04:23:27;4.30;;;2.80;;
26920;SDS011;14483;47.844;9.660;2023-04-03T04:25:53;5.85;;;2.70;;
26920;SDS011;14483;47.844;9.660;2023-04-03T04:28:19;4.55;;;2.97;;
26920;SDS011;14483;47.844;9.660;2023-04-03T04:30:46;4.05;;;2.35;;
26920;SDS011;14483;47.844;9.660;2023-04-03T04:33:12;4.32;;;2.70;;
26920;SDS011;14483;47.844;9.660;2023-04-03T04:35:41;4.93;;;2.90;;
26920;SDS011;14483;47.844;9.660;2023-04-03T04:38:07;4.70;;;2.55;;
26920;SDS011;14483;47.844;9.660;2023-04-03T04:40:35;4.18;;;2.40;;
26920;SDS011;14483;47.844;9.660;2023-04-03T04:43:02;3.67;;;2.50;;
26920;SDS011;14483;47.844;9.660;2023-04-03T04:45:29;5.28;;;3.03;;
26920;SDS011;14483;47.844;9.660;2023-04-03T04:47:55;5.05;;;1.90;;
26920;SDS011;14483;47.844;9.660;2023-04-03T04:50:21;2.72;;;2.20;;
26920;SDS011;14483;47.844;9.660;2023-04-03T04:52:48;3.55;;;2.08;;
26920;SDS011;14483;47.844;9.660;2023-04-03T04:55:14;3.15;;;1.92;;
26920;SDS011;14483;47.844;9.660;2023-04-03T04:57:42;4.57;;;2.60;;
26920;SDS011;14483;47.844;9.660;2023-04-03T05:00:11;5.18;;;2.38;;
26920;SDS011;14483;47.844;9.660;2023-04-03T05:02:38;4.88;;;2.55;;
26920;SDS011;14483;47.844;9.660;2023-04-03T05:05:04;3.60;;;2.10;;
26920;SDS011;14483;47.844;9.660;2023-04-03T05:07:31;4.25;;;2.20;;
26920;SDS011;14483;47.844;9.660;2023-04-03T05:09:57;3.50;;;1.80;;
26920;SDS011;14483;47.844;9.660;2023-04-03T05:12:23;3.53;;;2.25;;
26920;SDS011;14483;47.844;9.660;2023-04-03T05:14:51;5.88;;;2.47;;
26920;SDS011;14483;47.844;9.660;2023-04-03T05:17:17;4.03;;;2.17;;
26920;SDS011;14483;47.844;9.660;2023-04-03T05:19:44;3.95;;;2.55;;
26920;SDS011;14483;47.844;9.660;2023-04-03T05:22:10;3.05;;;2.00;;
26920;SDS011;14483;47.844;9.660;2023-04-03T05:24:37;4.00;;;2.33;;
26920;SDS011;14483;47.844;9.660;2023-04-03T05:27:03;4.00;;;2.15;;
26920;SDS011;14483;47.844;9.660;2023-04-03T05:29:29;2.65;;;1.90;;
26920;SDS011;14483;47.844;9.660;2023-04-03T05:31:57;3.33;;;1.52;;
26920;SDS011;14483;47.844;9.660;2023-04-03T05:34:23;3.47;;;2.22;;
26920;SDS011;14483;47.844;9.660;2023-04-03T05:36:50;4.28;;;1.90;;
26920;SDS011;14483;47.844;9.660;2023-04-03T05:39:16;3.65;;;2.33;;
26920;SDS011;14483;47.844;9.660;2023-04-03T05:41:42;4.05;;;2.58;;
26920;SDS011;14483;47.844;9.660;2023-04-03T05:44:09;3.70;;;2.10;;
26920;SDS011;14483;47.844;9.660;2023-04-03T05:46:35;2.83;;;1.92;;
26920;SDS011;14483;47.844;9.660;2023-04-03T05:49:03;4.88;;;2.50;;
26920;SDS011;14483;47.844;9.660;2023-04-03T05:51:30;3.08;;;1.90;;
26920;SDS011;14483;47.844;9.660;2023-04-03T05:53:59;3.20;;;2.10;;
26920;SDS011;14483;47.844;9.660;2023-04-03T05:56:27;4.18;;;2.42;;
26920;SDS011;14483;47.844;9.660;2023-04-03T05:58:53;2.80;;;2.10;;
26920;SDS011;14483;47.844;9.660;2023-04-03T06:01:20;4.18;;;1.83;;
26920;SDS011;14483;47.844;9.660;2023-04-03T06:03:46;3.70;;;2.03;;
26920;SDS011;14483;47.844;9.660;2023-04-03T06:06:14;4.05;;;2.30;;
26920;SDS011;14483;47.844;9.660;2023-04-03T06:08:40;4.07;;;2.47;;
26920;SDS011;14483;47.844;9.660;2023-04-03T06:11:08;3.47;;;2.22;;
26920;SDS011;14483;47.844;9.660;2023-04-03T06:13:35;3.95;;;2.15;;
26920;SDS011;14483;47.844;9.660;2023-04-03T06:16:02;3.67;;;1.98;;
26920;SDS011;14483;47.844;9.660;2023-04-03T06:18:29;3.35;;;1.88;;
26920;SDS011;14483;47.844;9.660;2023-04-03T06:20:56;3.47;;;2.10;;
26920;SDS011;14483;47.844;9.660;2023-04-03T06:23:24;3.50;;;1.95;;
26920;SDS011;14483;47.844;9.660;2023-04-03T06:25:51;3.20;;;2.05;;
26920;SDS011;14483;47.844;9.660;2023-04-03T06:28:17;7.25;;;2.33;;
26920;SDS011;14483;47.844;9.660;2023-04-03T06:30:44;3.78;;;2.40;;
26920;SDS011;14483;47.844;9.660;2023-04-03T06:33:10;5.30;;;2.33;;
26920;SDS011;14483;47.844;9.660;2023-04-03T06:35:36;4.53;;;2.78;;
26920;SDS011;14483;47.844;9.660;2023-04-03T06:38:03;5.90;;;2.28;;
26920;SDS011;14483;47.844;9.660;2023-04-03T06:40:35;4.97;;;2.50;;
26920;SDS011;14483;47.844;9.660;2023-04-03T06:43:02;4.18;;;2.95;;
26920;SDS011;14483;47.844;9.660;2023-04-03T06:45:28;2.95;;;1.95;;
26920;SDS011;14483;47.844;9.660;2023-04-03T06:47:54;3.90;;;2.47;;
26920;SDS011;14483;47.844;9.660;2023-04-03T06:50:21;4.38;;;2.20;;
26920;SDS011;14483;47.844;9.660;2023-04-03T06:52:47;3.80;;;2.13;;
26920;SDS011;14483;47.844;9.660;2023-04-03T06:55:13;4.50;;;2.50;;
26920;SDS011;14483;47.844;9.660;2023-04-03T06:57:41;6.07;;;3.10;;
26920;SDS011;14483;47.844;9.660;2023-04-03T07:00:08;3.83;;;2.92;;
26920;SDS011;14483;47.844;9.660;2023-04-03T07:02:35;5.53;;;3.28;;
26920;SDS011;14483;47.844;9.660;2023-04-03T07:05:01;6.07;;;3.25;;
26920;SDS011;14483;47.844;9.660;2023-04-03T07:07:28;4.53;;;2.97;;
26920;SDS011;14483;47.844;9.660;2023-04-03T07:09:54;4.80;;;2.92;;
26920;SDS011;14483;47.844;9.660;2023-04-03T07:12:21;6.97;;;4.13;;
26920;SDS011;14483;47.844;9.660;2023-04-03T07:14:48;4.97;;;2.75;;
26920;SDS011;14483;47.844;9.660;2023-04-03T07:17:15;4.75;;;2.75;;
26920;SDS011;14483;47.844;9.660;2023-04-03T07:19:41;3.65;;;2.40;;
26920;SDS011;14483;47.844;9.660;2023-04-03T07:22:07;6.90;;;2.90;;
26920;SDS011;14483;47.844;9.660;2023-04-03T07:24:34;11.52;;;3.42;;
26920;SDS011;14483;47.844;9.660;2023-04-03T07:27:00;7.15;;;2.65;;
26920;SDS011;14483;47.844;9.660;2023-04-03T07:29:27;5.63;;;2.53;;
26920;SDS011;14483;47.844;9.660;2023-04-03T07:31:55;7.68;;;3.53;;
26920;SDS011;14483;47.844;9.660;2023-04-03T07:34:21;7.40;;;3.28;;
26920;SDS011;14483;47.844;9.660;2023-04-03T07:36:48;6.22;;;3.28;;
26920;SDS011;14483;47.844;9.660;2023-04-03T07:39:14;6.15;;;3.33;;
26920;SDS011;14483;47.844;9.660;2023-04-03T07:41:40;6.85;;;3.30;;
26920;SDS011;14483;47.844;9.660;2023-04-03T07:44:07;9.00;;;4.18;;
26920;SDS011;14483;47.844;9.660;2023-04-03T07:46:34;8.45;;;4.47;;
26920;SDS011;14483;47.844;9.660;2023-04-03T07:49:02;5.95;;;3.20;;
26920;SDS011;14483;47.844;9.660;2023-04-03T07:51:28;3.92;;;2.38;;
26920;SDS011;14483;47.844;9.660;2023-04-03T07:53:55;4.53;;;2.80;;
26920;SDS011;14483;47.844;9.660;2023-04-03T07:56:22;6.22;;;3.35;;
26920;SDS011;14483;47.844;9.660;2023-04-03T07:58:50;4.82;;;3.10;;
26920;SDS011;14483;47.844;9.660;2023-04-03T08:01:16;4.95;;;2.75;;
26920;SDS011;14483;47.844;9.660;2023-04-03T08:03:42;5.65;;;3.42;;
26920;SDS011;14483;47.844;9.660;2023-04-03T08:06:10;6.75;;;3.00;;
26920;SDS011;14483;47.844;9.660;2023-04-03T08:08:37;7.03;;;3.30;;
26920;SDS011;14483;47.844;9.660;2023-04-03T08:11:04;4.82;;;2.70;;
26920;SDS011;14483;47.844;9.660;2023-04-03T08:13:31;12.45;;;5.43;;
26920;SDS011;14483;47.844;9.660;2023-04-03T08:15:57;19.50;;;9.05;;
26920;SDS011;14483;47.844;9.660;2023-04-03T08:18:24;12.15;;;6.13;;
26920;SDS011;14483;47.844;9.660;2023-04-03T08:20:51;6.38;;;3.58;;
26920;SDS011;14483;47.844;9.660;2023-04-03T08:23:19;8.75;;;3.10;;
26920;SDS011;14483;47.844;9.660;2023-04-03T08:25:46;7.20;;;3.58;;
26920;SDS011;14483;47.844;9.660;2023-04-03T08:28:12;5.63;;;3.20;;
26920;SDS011;14483;47.844;9.660;2023-04-03T08:30:38;6.63;;;3.42;;
26920;SDS011;14483;47.844;9.660;2023-04-03T08:33:05;5.35;;;3.08;;
26920;SDS011;14483;47.844;9.660;2023-04-03T08:35:32;7.85;;;3.78;;
26920;SDS011;14483;47.844;9.660;2023-04-03T08:37:58;4.70;;;2.55;;
26920;SDS011;14483;47.844;9.660;2023-04-03T08:40:27;6.32;;;2.72;;
26920;SDS011;14483;47.844;9.660;2023-04-03T08:42:59;4.32;;;2.72;;
26920;SDS011;14483;47.844;9.660;2023-04-03T08:45:34;7.15;;;3.20;;
26920;SDS011;14483;47.844;9.660;2023-04-03T08:48:04;5.13;;;2.88;;
26920;SDS011;14483;47.844;9.660;2023-04-03T08:50:33;6.05;;;2.72;;
26920;SDS011;14483;47.844;9.660;2023-04-03T08:53:02;6.03;;;3.17;;
26920;SDS011;14483;47.844;9.660;2023-04-03T08:55:33;4.22;;;2.92;;
26920;SDS011;14483;47.844;9.660;2023-04-03T08:58:01;9.75;;;3.45;;
26920;SDS011;14483;47.844;9.660;2023-04-03T09:00:29;5.50;;;2.95;;
26920;SDS011;14483;47.844;9.660;2023-04-03T09:02:56;6.15;;;3.35;;
26920;SDS011;14483;47.844;9.660;2023-04-03T09:05:27;4.90;;;2.75;;
26920;SDS011;14483;47.844;9.660;2023-04-03T09:07:57;5.95;;;2.92;;
26920;SDS011;14483;47.844;9.660;2023-04-03T09:10:27;7.53;;;3.50;;
26920;SDS011;14483;47.844;9.660;2023-04-03T09:12:59;5.10;;;2.92;;
26920;SDS011;14483;47.844;9.660;2023-04-03T09:15:27;4.75;;;2.78;;
26920;SDS011;14483;47.844;9.660;2023-04-03T09:17:59;6.95;;;3.17;;
26920;SDS011;14483;47.844;9.660;2023-04-03T09:20:27;9.05;;;2.88;;
26920;SDS011;14483;47.844;9.660;2023-04-03T09:22:55;5.35;;;2.83;;
26920;SDS011;14483;47.844;9.660;2023-04-03T09:25:23;4.95;;;2.58;;
26920;SDS011;14483;47.844;9.660;2023-04-03T09:27:51;4.90;;;2.78;;
26920;SDS011;14483;47.844;9.660;2023-04-03T09:30:20;4.50;;;2.80;;
26920;SDS011;14483;47.844;9.660;2023-04-03T09:32:47;4.97;;;2.78;;
26920;SDS011;14483;47.844;9.660;2023-04-03T09:35:18;3.33;;;2.20;;
26920;SDS011;14483;47.844;9.660;2023-04-03T09:37:45;4.78;;;2.88;;
26920;SDS011;14483;47.844;9.660;2023-04-03T09:40:28;5.15;;;3.08;;
26920;SDS011;14483;47.844;9.660;2023-04-03T09:45:23;4.15;;;2.20;;
26920;SDS011;14483;47.844;9.660;2023-04-03T09:47:54;4.20;;;2.35;;
26920;SDS011;14483;47.844;9.660;2023-04-03T09:50:29;4.25;;;2.60;;
26920;SDS011;14483;47.844;9.660;2023-04-03T09:52:56;5.45;;;2.67;;
26920;SDS011;14483;47.844;9.660;2023-04-03T09:55:23;4.95;;;2.97;;
26920;SDS011;14483;47.844;9.660;2023-04-03T09:57:52;4.38;;;2.72;;
26920;SDS011;14483;47.844;9.660;2023-04-03T10:00:20;4.25;;;2.70;;
26920;SDS011;14483;47.844;9.660;2023-04-03T10:02:50;4.53;;;2.75;;
26920;SDS011;14483;47.844;9.660;2023-04-03T10:05:25;5.05;;;2.92;;
26920;SDS011;14483;47.844;9.660;2023-04-03T10:07:52;4.45;;;2.83;;
26920;SDS011;14483;47.844;9.660;2023-04-03T10:10:32;8.63;;;2.78;;
26920;SDS011;14483;47.844;9.660;2023-04-03T10:13:06;6.07;;;2.92;;
26920;SDS011;14483;47.844;9.660;2023-04-03T10:15:34;4.30;;;2.33;;
26920;SDS011;14483;47.844;9.660;2023-04-03T10:18:04;3.90;;;2.65;;
26920;SDS011;14483;47.844;9.660;2023-04-03T10:20:34;3.88;;;2.50;;
26920;SDS011;14483;47.844;9.660;2023-04-03T10:23:10;4.22;;;2.33;;
26920;SDS011;14483;47.844;9.660;2023-04-03T10:25:40;4.28;;;2.22;;
26920;SDS011;14483;47.844;9.660;2023-04-03T10:28:08;4.97;;;1.88;;
26920;SDS011;14483;47.844;9.660;2023-04-03T10:30:40;5.13;;;2.45;;
26920;SDS011;14483;47.844;9.660;2023-04-03T10:33:20;3.95;;;1.77;;
26920;SDS011;14483;47.844;9.660;2023-04-03T10:35:53;3.60;;;1.83;;
26920;SDS011;14483;47.844;9.660;2023-04-03T10:38:22;2.92;;;1.70;;
26920;SDS011;14483;47.844;9.660;2023-04-03T10:40:52;3.33;;;2.20;;
26920;SDS011;14483;47.844;9.660;2023-04-03T10:43:21;4.55;;;2.40;;
26920;SDS011;14483;47.844;9.660;2023-04-03T10:45:53;3.17;;;1.63;;
26920;SDS011;14483;47.844;9.660;2023-04-03T10:48:26;5.82;;;1.75;;
26920;SDS011;14483;47.844;9.660;2023-04-03T10:50:57;3.50;;;2.33;;
26920;SDS011;14483;47.844;9.660;2023-04-03T10:53:27;4.35;;;1.67;;
26920;SDS011;14483;47.844;9.660;2023-04-03T10:55:58;4.55;;;1.45;;
26920;SDS011;14483;47.844;9.660;2023-04-03T10:58:28;3.35;;;1.92;;
26920;SDS011;14483;47.844;9.660;2023-04-03T11:00:56;3.10;;;1.85;;
26920;SDS011;14483;47.844;9.660;2023-04-03T11:03:29;3.17;;;1.58;;
26920;SDS011;14483;47.844;9.660;2023-04-03T11:05:56;4.75;;;1.92;;
26920;SDS011;14483;47.844;9.660;2023-04-03T11:08:26;4.05;;;1.65;;
26920;SDS011;14483;47.844;9.660;2023-04-03T11:10:54;4.70;;;1.60;;
26920;SDS011;14483;47.844;9.660;2023-04-03T11:13:22;2.78;;;1.52;;
26920;SDS011;14483;47.844;9.660;2023-04-03T11:15:52;3.30;;;2.03;;
26920;SDS011;14483;47.844;9.660;2023-04-03T11:18:20;3.40;;;1.75;;
26920;SDS011;14483;47.844;9.660;2023-04-03T11:20:53;3.83;;;1.73;;
26920;SDS011;14483;47.844;9.660;2023-04-03T11:23:23;2.67;;;1.70;;
26920;SDS011;14483;47.844;9.660;2023-04-03T11:25:51;2.42;;;1.45;;
26920;SDS011;14483;47.844;9.660;2023-04-03T11:28:19;4.63;;;1.58;;
26920;SDS011;14483;47.844;9.660;2023-04-03T11:30:46;4.22;;;1.60;;
26920;SDS011;14483;47.844;9.660;2023-04-03T11:36:07;4.70;;;2.10;;
26920;SDS011;14483;47.844;9.660;2023-04-03T11:38:36;4.55;;;1.90;;
26920;SDS011;14483;47.844;9.660;2023-04-03T11:41:04;3.20;;;1.63;;
26920;SDS011;14483;47.844;9.660;2023-04-03T11:43:32;3.80;;;1.95;;
26920;SDS011;14483;47.844;9.660;2023-04-03T11:45:59;2.83;;;1.98;;
26920;SDS011;14483;47.844;9.660;2023-04-03T11:48:48;3.95;;;2.45;;
26920;SDS011;14483;47.844;9.660;2023-04-03T11:56:43;2.60;;;1.58;;
26920;SDS011;14483;47.844;9.660;2023-04-03T11:59:19;5.22;;;1.20;;
26920;SDS011;14483;47.844;9.660;2023-04-03T12:01:52;2.97;;;1.30;;
26920;SDS011;14483;47.844;9.660;2023-04-03T12:04:19;5.20;;;2.10;;
26920;SDS011;14483;47.844;9.660;2023-04-03T12:06:51;2.85;;;1.50;;
26920;SDS011;14483;47.844;9.660;2023-04-03T12:09:23;3.55;;;1.88;;
26920;SDS011;14483;47.844;9.660;2023-04-03T12:11:52;2.97;;;1.65;;
26920;SDS011;14483;47.844;9.660;2023-04-03T12:14:19;3.17;;;1.73;;
26920;SDS011;14483;47.844;9.660;2023-04-03T12:16:48;2.45;;;1.52;;
26920;SDS011;14483;47.844;9.660;2023-04-03T12:19:32;2.70;;;1.77;;
26920;SDS011;14483;47.844;9.660;2023-04-03T12:24:47;3.38;;;1.92;;
26920;SDS011;14483;47.844;9.660;2023-04-03T12:27:23;6.05;;;2.30;;
26920;SDS011;14483;47.844;9.660;2023-04-03T12:29:54;3.78;;;1.70;;
26920;SDS011;14483;47.844;9.660;2023-04-03T12:32:24;3.53;;;1.52;;
26920;SDS011;14483;47.844;9.660;2023-04-03T12:34:57;2.33;;;1.20;;
26920;SDS011;14483;47.844;9.660;2023-04-03T12:37:39;2.40;;;1.50;;
26920;SDS011;14483;47.844;9.660;2023-04-03T12:40:09;2.30;;;1.15;;
26920;SDS011;14483;47.844;9.660;2023-04-03T12:42:51;5.10;;;1.88;;
26920;SDS011;14483;47.844;9.660;2023-04-03T12:45:20;6.75;;;1.73;;
26920;SDS011;14483;47.844;9.660;2023-04-03T12:47:48;3.58;;;2.15;;
26920;SDS011;14483;47.844;9.660;2023-04-03T12:50:17;2.47;;;1.50;;
26920;SDS011;14483;47.844;9.660;2023-04-03T12:52:45;3.08;;;1.95;;
26920;SDS011;14483;47.844;9.660;2023-04-03T12:55:14;3.97;;;2.72;;
26920;SDS011;14483;47.844;9.660;2023-04-03T12:57:41;3.58;;;1.63;;
26920;SDS011;14483;47.844;9.660;2023-04-03T13:03:06;3.80;;;1.60;;
26920;SDS011;14483;47.844;9.660;2023-04-03T13:05:45;2.22;;;1.35;;
26920;SDS011;14483;47.844;9.660;2023-04-03T13:08:12;2.80;;;1.45;;
26920;SDS011;14483;47.844;9.660;2023-04-03T13:10:43;3.17;;;1.60;;
26920;SDS011;14483;47.844;9.660;2023-04-03T13:13:13;2.78;;;1.60;;
26920;SDS011;14483;47.844;9.660;2023-04-03T13:15:42;5.30;;;1.83;;
26920;SDS011;14483;47.844;9.660;2023-04-03T13:18:22;2.97;;;1.20;;
26920;SDS011;14483;47.844;9.660;2023-04-03T13:20:48;2.53;;;1.60;;
26920;SDS011;14483;47.844;9.660;2023-04-03T13:23:15;3.58;;;1.67;;
26920;SDS011;14483;47.844;9.660;2023-04-03T13:25:43;4.20;;;1.40;;
26920;SDS011;14483;47.844;9.660;2023-04-03T13:28:13;3.60;;;1.30;;
26920;SDS011;14483;47.844;9.660;2023-04-03T13:30:40;3.08;;;1.45;;
26920;SDS011;14483;47.844;9.660;2023-04-03T13:33:20;6.28;;;1.20;;
26920;SDS011;14483;47.844;9.660;2023-04-03T13:35:54;3.17;;;1.00;;
26920;SDS011;14483;47.844;9.660;2023-04-03T13:38:22;4.50;;;2.05;;
26920;SDS011;14483;47.844;9.660;2023-04-03T13:40:49;3.17;;;1.63;;
26920;SDS011;14483;47.844;9.660;2023-04-03T13:43:18;3.70;;;1.50;;
26920;SDS011;14483;47.844;9.660;2023-04-03T13:45:53;2.55;;;1.65;;
26920;SDS011;14483;47.844;9.660;2023-04-03T13:48:20;3.40;;;1.42;;
26920;SDS011;14483;47.844;9.660;2023-04-03T13:50:56;3.40;;;1.60;;
26920;SDS011;14483;47.844;9.660;2023-04-03T13:53:23;2.67;;;1.30;;
26920;SDS011;14483;47.844;9.660;2023-04-03T13:55:55;2.65;;;1.52;;
26920;SDS011;14483;47.844;9.660;2023-04-03T13:58:23;4.25;;;1.10;;
26920;SDS011;14483;47.844;9.660;2023-04-03T14:00:50;4.05;;;1.30;;
26920;SDS011;14483;47.844;9.660;2023-04-03T14:03:18;2.63;;;1.00;;
26920;SDS011;14483;47.844;9.660;2023-04-03T14:05:45;8.35;;;2.22;;
26920;SDS011;14483;47.844;9.660;2023-04-03T14:08:13;3.08;;;1.35;;
26920;SDS011;14483;47.844;9.660;2023-04-03T14:10:39;2.17;;;1.00;;
26920;SDS011;14483;47.844;9.660;2023-04-03T14:13:08;7.35;;;1.58;;
26920;SDS011;14483;47.844;9.660;2023-04-03T14:15:35;2.10;;;1.25;;
26920;SDS011;14483;47.844;9.660;2023-04-03T14:18:01;2.72;;;1.60;;
26920;SDS011;14483;47.844;9.660;2023-04-03T14:20:28;2.00;;;1.27;;
26920;SDS011;14483;47.844;9.660;2023-04-03T14:22:54;3.05;;;1.65;;
26920;SDS011;14483;47.844;9.660;2023-04-03T14:25:22;2.50;;;1.58;;
26920;SDS011;14483;47.844;9.660;2023-04-03T14:27:49;4.45;;;1.58;;
26920;SDS011;14483;47.844;9.660;2023-04-03T14:30:17;1.60;;;1.10;;
26920;SDS011;14483;47.844;9.660;2023-04-03T14:32:44;2.17;;;1.40;;
26920;SDS011;14483;47.844;9.660;2023-04-03T14:35:11;2.15;;;1.40;;
26920;SDS011;14483;47.844;9.660;2023-04-03T14:37:38;4.20;;;1.40;;
26920;SDS011;14483;47.844;9.660;2023-04-03T14:40:06;2.38;;;1.10;;
26920;SDS011;14483;47.844;9.660;2023-04-03T14:42:34;3.88;;;1.75;;
26920;SDS011;14483;47.844;9.660;2023-04-03T14:45:03;5.00;;;1.90;;
26920;SDS011;14483;47.844;9.660;2023-04-03T14:47:30;4.97;;;1.38;;
26920;SDS011;14483;47.844;9.660;2023-04-03T14:49:56;3.10;;;1.50;;
26920;SDS011;14483;47.844;9.660;2023-04-03T14:52:24;5.38;;;1.50;;
26920;SDS011;14483;47.844;9.660;2023-04-03T14:54:51;2.22;;;1.50;;
26920;SDS011;14483;47.844;9.660;2023-04-03T14:57:18;3.67;;;2.17;;
26920;SDS011;14483;47.844;9.660;2023-04-03T14:59:46;3.70;;;2.33;;
26920;SDS011;14483;47.844;9.660;2023-04-03T15:02:26;3.70;;;1.67;;
26920;SDS011;14483;47.844;9.660;2023-04-03T15:04:54;4.72;;;2.40;;
26920;SDS011;14483;47.844;9.660;2023-04-03T15:07:20;3.38;;;1.45;;
26920;SDS011;14483;47.844;9.660;2023-04-03T15:09:47;2.83;;;1.40;;
26920;SDS011;14483;47.844;9.660;2023-04-03T15:12:13;2.92;;;1.63;;